Time;durP1;ratioP1;P1;durP2;ratioP2;P2;SDS_P1;SDS_P2;PMS_P1;PMS_P2;Temp;Humidity;BMP_temperature;BMP_pressure;BME280_temperature;BME280_humidity;BME280_pressure;Samples;Min_cycle;Max_cycle;Signal;HPM_P1;HPM_P2
2023/01/15 00:00:55;;;;;;;6.18;2.83;;;;;;;7.09;100.00;162418.47;5050674;28;20048;-62
2023/01/15 00:03:21;;;;;;;7.55;3.33;;;;;;;7.10;100.00;162421.19;5052088;28;20399;-62
2023/01/15 00:05:46;;;;;;;13.23;4.50;;;;;;;7.09;100.00;162418.47;5050420;28;20045;-62
2023/01/15 00:08:11;;;;;;;17.17;4.38;;;;;;;7.05;100.00;162409.03;5051958;28;20029;-62
2023/01/15 00:10:37;;;;;;;7.65;3.40;;;;;;;7.07;100.00;162413.06;5050376;28;20091;-62
2023/01/15 00:13:02;;;;;;;8.90;3.88;;;;;;;7.06;100.00;162410.38;5052361;28;20021;-62
2023/01/15 00:15:27;;;;;;;8.45;2.75;;;;;;;7.07;100.00;162413.06;5050580;28;20045;-62
2023/01/15 00:17:53;;;;;;;7.45;2.15;;;;;;;7.10;100.00;162422.50;5051853;28;20021;-63
2023/01/15 00:20:18;;;;;;;11.32;2.70;;;;;;;7.11;100.00;162425.19;5050172;28;20523;-62
2023/01/15 00:22:43;;;;;;;6.63;3.88;;;;;;;7.10;100.00;162422.50;5052068;28;20494;-62
2023/01/15 00:27:54;;;;;;;8.27;3.13;;;;;;;6.94;100.00;162379.41;5052287;28;20039;-62
2023/01/15 00:30:19;;;;;;;9.00;4.03;;;;;;;7.02;100.00;162399.63;5051039;28;20392;-62
2023/01/15 00:32:44;;;;;;;8.07;3.78;;;;;;;7.04;100.00;162404.97;5071599;28;20027;-62
2023/01/15 00:35:15;;;;;;;11.18;4.32;;;;;;;6.99;100.00;162392.91;5070314;28;20024;-60
2023/01/15 00:37:41;;;;;;;17.08;4.95;;;;;;;6.95;100.00;162383.47;5071588;28;20055;-62
2023/01/15 00:40:07;;;;;;;10.32;5.25;;;;;;;6.95;100.00;162383.47;5071265;28;20025;-62
2023/01/15 00:42:33;;;;;;;8.55;4.47;;;;;;;6.93;100.00;162376.69;5070094;28;20036;-62
2023/01/15 00:45:04;;;;;;;6.85;2.90;;;;;;;6.96;100.00;162384.78;5071209;28;20590;-62
2023/01/15 00:47:29;;;;;;;15.50;5.07;;;;;;;7.02;100.00;162399.63;5069593;28;20051;-62
2023/01/15 00:49:55;;;;;;;7.82;4.22;;;;;;;6.96;100.00;162384.78;5071340;28;20036;-63
2023/01/15 00:52:20;;;;;;;6.15;3.38;;;;;;;6.97;100.00;162388.81;5069337;28;20028;-62
2023/01/15 00:54:47;;;;;;;8.10;4.18;;;;;;;6.91;100.00;162372.66;5071384;28;20032;-62
2023/01/15 00:57:12;;;;;;;18.65;4.40;;;;;;;6.91;100.00;162371.34;5069569;28;20141;-63
2023/01/15 00:59:37;;;;;;;12.95;3.13;;;;;;;6.89;100.00;162367.28;5071355;28;20472;-63
2023/01/15 01:02:03;;;;;;;19.98;5.50;;;;;;;6.91;100.00;162371.34;5069442;28;20495;-63
2023/01/15 01:04:28;;;;;;;11.30;4.57;;;;;;;6.92;100.00;162375.38;5070793;28;20067;-62
2023/01/15 01:06:53;;;;;;;5.93;3.58;;;;;;;6.95;100.00;162382.09;5069361;28;20059;-63
2023/01/15 01:09:19;;;;;;;10.00;4.07;;;;;;;6.95;100.00;162383.47;5070499;28;20016;-62
2023/01/15 01:11:44;;;;;;;12.10;4.55;;;;;;;6.93;100.00;162378.06;5059213;28;20049;-61
2023/01/15 01:14:11;;;;;;;8.27;5.10;;;;;;;6.97;100.00;162388.81;5050017;28;20498;-61
2023/01/15 01:16:40;;;;;;;13.18;4.03;;;;;;;7.01;100.00;162396.91;5048353;28;20045;-61
2023/01/15 01:19:19;;;;;;;16.15;5.03;;;;;;;6.95;100.00;162383.47;5051297;28;20028;-61
2023/01/15 01:21:45;;;;;;;5.60;4.15;;;;;;;7.02;100.00;162399.63;5048840;28;20041;-61
2023/01/15 01:24:13;;;;;;;12.85;3.95;;;;;;;7.03;100.00;162402.31;5050400;28;20021;-61
2023/01/15 01:26:39;;;;;;;16.45;3.90;;;;;;;7.04;100.00;162404.97;5048803;28;20524;-61
2023/01/15 01:29:04;;;;;;;9.20;4.10;;;;;;;7.04;100.00;162406.34;5049926;28;20021;-61
2023/01/15 01:31:30;;;;;;;9.80;2.40;;;;;;;6.96;100.00;162386.13;5046855;28;20055;-61
2023/01/15 01:33:57;;;;;;;8.00;4.35;;;;;;;7.01;100.00;162398.25;5050035;28;20047;-61
2023/01/15 01:36:34;;;;;;;12.68;4.38;;;;;;;6.96;100.00;162384.78;5047619;28;20083;-61
2023/01/15 01:39:00;;;;;;;9.20;4.32;;;;;;;6.93;100.00;162378.06;5050027;28;20025;-61
2023/01/15 01:41:27;;;;;;;8.90;3.53;;;;;;;6.92;100.00;162374.03;5048071;28;20569;-61
2023/01/15 01:44:03;;;;;;;11.95;4.63;;;;;;;6.93;100.00;162378.06;5050848;28;20115;-62
2023/01/15 01:46:31;;;;;;;9.63;3.58;;;;;;;6.87;100.00;162360.53;5048486;28;20052;-62
2023/01/15 01:49:01;;;;;;;5.27;3.47;;;;;;;6.88;100.00;162364.63;5050536;28;20444;-62
2023/01/15 01:51:31;;;;;;;12.82;4.68;;;;;;;6.92;100.00;162375.38;5049042;28;20045;-62
2023/01/15 01:53:57;;;;;;;14.68;3.75;;;;;;;6.87;100.00;162361.91;5050326;28;20025;-62
2023/01/15 01:56:23;;;;;;;22.83;6.90;;;;;;;6.85;100.00;162356.53;5048719;28;20060;-62
2023/01/15 01:58:53;;;;;;;13.57;4.15;;;;;;;6.87;100.00;162361.91;5050912;28;20029;-62
2023/01/15 02:01:21;;;;;;;9.45;3.42;;;;;;;6.87;100.00;162360.53;5048443;28;20040;-62
2023/01/15 02:03:47;;;;;;;17.30;5.30;;;;;;;6.83;100.00;162351.13;5050471;28;20028;-62
2023/01/15 02:06:14;;;;;;;7.57;3.75;;;;;;;6.83;100.00;162351.13;5048523;28;20055;-62
2023/01/15 02:08:39;;;;;;;13.95;4.97;;;;;;;6.81;100.00;162345.78;5050223;28;20063;-62
2023/01/15 02:11:07;;;;;;;5.40;3.40;;;;;;;6.78;100.00;162337.66;5048896;28;20511;-62
2023/01/15 02:13:38;;;;;;;16.95;4.95;;;;;;;6.77;100.00;162336.34;5061472;28;20047;-62
2023/01/15 02:16:17;;;;;;;6.72;3.10;;;;;;;6.78;100.00;162337.66;5068784;28;20384;-62
2023/01/15 02:19:10;;;;;;;9.07;3.63;;;;;;;6.80;100.00;162343.06;5070666;28;20049;-62
2023/01/15 02:22:01;;;;;;;16.38;4.18;;;;;;;6.77;100.00;162336.34;5049396;28;20032;-62
2023/01/15 02:24:44;;;;;;;11.80;4.90;;;;;;;6.78;100.00;162337.66;5074084;28;20108;-62
2023/01/15 02:27:22;;;;;;;22.23;7.22;;;;;;;6.72;100.00;162321.53;5070022;28;20120;-62
2023/01/15 02:30:12;;;;;;;25.67;6.13;;;;;;;6.66;100.00;162306.69;5034046;28;20056;-62
2023/01/15 02:32:48;;;;;;;20.88;5.25;;;;;;;6.65;100.00;162305.38;5032883;28;20044;-62
2023/01/15 02:35:22;;;;;;;11.15;4.75;;;;;;;6.71;100.00;162318.81;5032394;28;20025;-62
2023/01/15 02:37:52;;;;;;;8.00;4.10;;;;;;;6.65;100.00;162305.38;5033990;28;20020;-63
2023/01/15 02:40:21;;;;;;;5.88;3.60;;;;;;;6.59;100.00;162289.19;5040106;28;20059;-62
2023/01/15 02:42:48;;;;;;;19.80;5.68;;;;;;;6.66;100.00;162308.03;5054237;28;20017;-62
2023/01/15 02:45:17;;;;;;;10.02;3.53;;;;;;;6.65;100.00;162305.38;5051496;28;20032;-62
2023/01/15 02:47:44;;;;;;;15.80;3.33;;;;;;;6.64;100.00;162301.31;5053855;28;20488;-62
2023/01/15 02:50:14;;;;;;;11.35;3.13;;;;;;;6.63;100.00;162298.59;5052341;28;20100;-61
2023/01/15 02:52:46;;;;;;;8.70;3.95;;;;;;;6.61;100.00;162294.56;5053695;28;20053;-61
2023/01/15 02:55:21;;;;;;;7.20;4.05;;;;;;;6.51;100.00;162267.69;5051879;28;20025;-62
2023/01/15 02:57:48;;;;;;;13.63;4.70;;;;;;;6.55;100.00;162278.44;5053964;28;20017;-62
2023/01/15 03:00:17;;;;;;;18.00;5.10;;;;;;;6.50;100.00;162264.97;5051471;28;20092;-62
2023/01/15 03:02:52;;;;;;;8.40;2.95;;;;;;;6.43;100.00;162247.47;5053460;28;20083;-63
2023/01/15 03:05:32;;;;;;;10.20;3.80;;;;;;;6.36;100.00;162228.63;5051184;28;20037;-63
2023/01/15 03:08:00;;;;;;;8.23;3.25;;;;;;;6.35;100.00;162225.91;5053107;28;20037;-62
2023/01/15 03:10:42;;;;;;;18.45;6.13;;;;;;;6.31;100.00;162216.50;5051773;28;20158;-62
2023/01/15 03:13:16;;;;;;;10.57;3.50;;;;;;;6.21;100.00;162189.59;5053547;28;20028;-62
2023/01/15 03:19:18;;;;;;;13.32;4.13;;;;;;;6.17;100.00;162178.81;5053561;28;20036;-62
2023/01/15 03:21:46;;;;;;;9.85;4.10;;;;;;;6.16;100.00;162176.13;5051244;28;20474;-62
2023/01/15 03:24:17;;;;;;;4.00;3.17;;;;;;;6.15;100.00;162173.41;5053264;28;20033;-62
2023/01/15 03:26:42;;;;;;;10.70;4.95;;;;;;;6.12;100.00;162165.38;5051685;28;20087;-62
2023/01/15 03:29:09;;;;;;;23.92;5.82;;;;;;;6.15;100.00;162173.41;5052423;28;20017;-62
2023/01/15 03:31:35;;;;;;;10.13;3.47;;;;;;;6.16;100.00;162177.50;5050824;28;20045;-62
2023/01/15 03:34:01;;;;;;;13.75;4.40;;;;;;;6.07;100.00;162153.25;5052524;28;20094;-62
2023/01/15 03:36:26;;;;;;;16.58;4.40;;;;;;;6.12;100.00;162166.69;5050700;28;20559;-62
2023/01/15 03:38:52;;;;;;;13.32;3.97;;;;;;;6.13;100.00;162168.06;5053240;28;20486;-62
2023/01/15 03:41:28;;;;;;;11.02;5.47;;;;;;;6.14;100.00;162170.75;5050868;28;20037;-62
2023/01/15 03:44:11;;;;;;;16.27;6.00;;;;;;;6.09;100.00;162158.66;5052282;28;20429;-62
2023/01/15 03:46:53;;;;;;;10.23;4.00;;;;;;;6.12;100.00;162165.38;5051302;28;20102;-62
2023/01/15 03:49:30;;;;;;;20.70;7.03;;;;;;;6.12;100.00;162165.38;5052606;28;20029;-62
2023/01/15 03:52:20;;;;;;;10.63;5.13;;;;;;;6.07;100.00;162151.94;5050798;28;20071;-62
2023/01/15 03:54:53;;;;;;;15.32;5.05;;;;;;;6.06;100.00;162150.56;5052645;28;20025;-62
2023/01/15 03:57:33;;;;;;;12.52;4.53;;;;;;;6.02;100.00;162141.13;5050584;28;20094;-63
2023/01/15 04:00:06;;;;;;;9.23;5.22;;;;;;;6.08;100.00;162154.56;5052290;28;20025;-61
2023/01/15 04:02:31;;;;;;;11.80;5.57;;;;;;;6.06;100.00;162150.56;5050584;28;20033;-60
2023/01/15 04:04:58;;;;;;;11.63;4.68;;;;;;;6.02;100.00;162141.13;5052061;28;20048;-64
2023/01/15 04:07:24;;;;;;;13.77;4.20;;;;;;;6.01;100.00;162138.44;5050282;28;20407;-63
2023/01/15 04:09:50;;;;;;;13.98;4.38;;;;;;;5.96;100.00;162124.94;5052469;28;20108;-62
2023/01/15 04:12:15;;;;;;;19.25;7.35;;;;;;;5.99;100.00;162133.09;5050035;28;20037;-63
2023/01/15 04:14:41;;;;;;;11.50;3.97;;;;;;;5.95;100.00;162122.25;5051136;28;20037;-62
2023/01/15 04:17:06;;;;;;;11.27;3.60;;;;;;;5.90;100.00;162107.41;5049977;28;20049;-63
2023/01/15 04:19:31;;;;;;;6.95;4.20;;;;;;;5.90;100.00;162107.41;5051321;28;20029;-63
2023/01/15 04:21:57;;;;;;;9.43;4.55;;;;;;;5.89;100.00;162106.09;5049979;28;20091;-62
2023/01/15 04:24:23;;;;;;;7.80;2.90;;;;;;;5.84;100.00;162092.66;5050848;28;20613;-63
2023/01/15 04:26:49;;;;;;;8.85;3.40;;;;;;;5.90;100.00;162108.81;5050219;28;20536;-62
2023/01/15 04:29:14;;;;;;;16.92;3.95;;;;;;;5.93;100.00;162115.53;5051425;28;20033;-62
2023/01/15 04:31:39;;;;;;;26.08;7.47;;;;;;;5.99;100.00;162131.72;5050425;28;20045;-61
2023/01/15 04:34:05;;;;;;;11.52;2.90;;;;;;;6.01;100.00;162138.44;5051970;28;20476;-62
2023/01/15 04:36:34;;;;;;;8.13;3.28;;;;;;;5.99;100.00;162133.09;5049857;28;20472;-61
2023/01/15 04:38:59;;;;;;;12.55;5.88;;;;;;;5.96;100.00;162124.94;5052060;28;20100;-61
2023/01/15 04:44:08;;;;;;;15.55;4.43;;;;;;;5.92;100.00;162112.81;5050817;28;20391;-62
2023/01/15 04:46:37;;;;;;;7.65;3.50;;;;;;;5.92;100.00;162112.81;5050034;28;20045;-61
2023/01/15 04:49:05;;;;;;;9.75;3.92;;;;;;;5.89;100.00;162106.09;5051792;28;20166;-62
2023/01/15 04:51:30;;;;;;;18.45;4.68;;;;;;;5.86;100.00;162098.00;5049381;28;20557;-61
2023/01/15 04:53:55;;;;;;;10.23;5.38;;;;;;;5.83;100.00;162089.97;5051566;28;20029;-62
2023/01/15 04:56:21;;;;;;;10.60;5.03;;;;;;;5.83;100.00;162089.97;5049782;28;20408;-61
2023/01/15 04:58:46;;;;;;;15.10;4.07;;;;;;;5.85;100.00;162095.31;5051286;28;20040;-61
2023/01/15 05:01:13;;;;;;;13.10;3.42;;;;;;;5.86;100.00;162098.00;5049517;28;20033;-61
2023/01/15 05:03:38;;;;;;;9.65;3.75;;;;;;;5.87;100.00;162102.06;5051260;28;20578;-61
2023/01/15 05:06:04;;;;;;;20.70;4.50;;;;;;;5.84;100.00;162092.66;5050442;28;20045;-61
2023/01/15 05:08:30;;;;;;;17.05;3.92;;;;;;;5.83;100.00;162089.97;5051091;28;20021;-61
2023/01/15 05:10:55;;;;;;;7.85;4.30;;;;;;;5.88;100.00;162103.41;5050512;28;20107;-62
2023/01/15 05:13:21;;;;;;;21.48;4.40;;;;;;;5.92;100.00;162112.81;5049201;28;20411;-62
2023/01/15 05:15:47;;;;;;;16.63;5.47;;;;;;;5.90;100.00;162108.81;5050565;28;20565;-62
2023/01/15 05:18:15;;;;;;;11.48;3.50;;;;;;;5.89;100.00;162106.09;5049370;28;20415;-62
2023/01/15 05:20:41;;;;;;;9.20;3.08;;;;;;;5.86;100.00;162098.00;5050714;28;20025;-62
2023/01/15 05:23:07;;;;;;;9.57;3.25;;;;;;;5.78;100.00;162076.47;5049406;28;20581;-62
2023/01/15 05:25:34;;;;;;;23.55;4.47;;;;;;;5.82;100.00;162087.25;5050552;28;20025;-62
2023/01/15 05:28:00;;;;;;;9.80;3.20;;;;;;;5.79;100.00;162079.16;5049203;28;20044;-62
2023/01/15 05:30:25;;;;;;;14.10;4.03;;;;;;;5.76;100.00;162071.13;5050695;28;20029;-62
2023/01/15 05:32:50;;;;;;;9.40;3.53;;;;;;;5.75;100.00;162069.75;5049308;28;20037;-62
2023/01/15 05:35:16;;;;;;;14.52;4.18;;;;;;;5.69;100.00;162055.00;5050117;28;20039;-62
2023/01/15 05:37:41;;;;;;;10.07;4.68;;;;;;;5.66;100.00;162046.91;5049437;28;20041;-62
2023/01/15 05:40:07;;;;;;;11.93;3.35;;;;;;;5.65;100.00;162044.19;5050701;28;20036;-62
2023/01/15 05:42:32;;;;;;;12.02;4.53;;;;;;;5.61;100.00;162033.47;5048777;28;20044;-62
2023/01/15 05:44:58;;;;;;;11.13;3.97;;;;;;;5.56;100.00;162019.97;5050634;28;20082;-62
2023/01/15 05:47:23;;;;;;;10.52;4.88;;;;;;;5.54;100.00;162015.94;5048966;28;20087;-62
2023/01/15 05:49:49;;;;;;;16.88;5.25;;;;;;;5.57;100.00;162022.66;5050576;28;20028;-62
2023/01/15 05:52:14;;;;;;;16.83;4.95;;;;;;;5.53;100.00;162011.94;5048707;28;20091;-62
2023/01/15 05:54:40;;;;;;;21.58;4.90;;;;;;;5.54;100.00;162014.63;5050590;28;20035;-62
2023/01/15 05:57:05;;;;;;;16.30;5.97;;;;;;;5.56;100.00;162021.34;5052122;28;20041;-62
2023/01/15 05:59:32;;;;;;;12.55;5.18;;;;;;;5.51;100.00;162006.53;5054506;28;20021;-62
2023/01/15 06:01:57;;;;;;;14.27;3.95;;;;;;;5.53;100.00;162011.94;5053062;28;20064;-62
2023/01/15 06:04:24;;;;;;;9.80;3.90;;;;;;;5.49;100.00;162002.50;5053933;28;20052;-62
2023/01/15 06:06:50;;;;;;;16.10;5.28;;;;;;;5.43;100.00;161986.38;5052966;28;20460;-62
2023/01/15 06:09:16;;;;;;;16.42;4.65;;;;;;;5.40;100.00;161978.28;5054123;28;20025;-62
2023/01/15 06:11:42;;;;;;;20.55;4.93;;;;;;;5.38;100.00;161974.25;5052211;28;20500;-63
2023/01/15 06:14:09;;;;;;;11.98;5.13;;;;;;;5.37;100.00;161971.56;5054145;28;20017;-62
2023/01/15 06:16:34;;;;;;;12.52;3.58;;;;;;;5.44;100.00;161987.69;5052422;28;20105;-62
2023/01/15 06:19:04;;;;;;;15.90;3.80;;;;;;;5.43;100.00;161985.00;5054159;28;20483;-62
2023/01/15 06:21:30;;;;;;;11.63;4.15;;;;;;;5.45;100.00;161990.41;5052666;28;20534;-62
2023/01/15 06:23:56;;;;;;;18.45;4.90;;;;;;;5.40;100.00;161979.59;5054196;28;20078;-62
2023/01/15 06:26:21;;;;;;;18.10;4.93;;;;;;;5.41;100.00;161980.97;5051917;28;20041;-62
2023/01/15 06:28:47;;;;;;;20.63;6.10;;;;;;;5.41;100.00;161980.97;5053519;28;20036;-62
2023/01/15 06:31:15;;;;;;;12.18;3.95;;;;;;;5.43;100.00;161985.00;5052485;28;20526;-62
2023/01/15 06:33:41;;;;;;;11.23;4.40;;;;;;;5.42;100.00;161982.31;5053938;28;20021;-63
2023/01/15 06:36:09;;;;;;;10.45;4.45;;;;;;;5.42;100.00;161982.31;5052408;28;20395;-64
2023/01/15 06:38:35;;;;;;;;;;;;;;;5.40;100.00;161978.28;5054578;28;20025;-63
2023/01/15 06:41:02;;;;;;;19.73;5.70;;;;;;;5.42;100.00;161982.31;5052160;28;19919;-63
2023/01/15 06:48:56;;;;;;;7.72;3.13;;;;;;;5.34;100.00;161962.16;5056920;28;20040;-62
2023/01/15 06:51:22;;;;;;;19.77;6.28;;;;;;;5.24;100.00;161937.91;5054571;28;20040;-62
2023/01/15 06:53:48;;;;;;;11.75;4.47;;;;;;;5.27;100.00;161944.66;5054810;28;20031;-62
2023/01/15 06:56:13;;;;;;;4.80;3.15;;;;;;;5.22;100.00;161932.53;5062809;28;20043;-62
2023/01/15 06:58:40;;;;;;;11.13;4.07;;;;;;;5.26;100.00;161941.94;5072107;28;20029;-62
2023/01/15 07:01:11;;;;;;;16.02;3.95;;;;;;;5.23;100.00;161933.91;5060297;28;20041;-62
2023/01/15 07:03:36;;;;;;;13.90;4.55;;;;;;;5.24;100.00;161936.59;5035465;28;20793;-62
2023/01/15 07:06:10;;;;;;;49.03;7.75;;;;;;;5.19;100.00;161923.13;5067605;28;20052;-62
2023/01/15 07:08:36;;;;;;;16.77;4.45;;;;;;;5.16;100.00;161915.06;5067237;28;20028;-61
2023/01/15 07:11:08;;;;;;;12.63;6.90;;;;;;;5.11;100.00;161901.59;5071199;28;20530;-62
2023/01/15 07:13:34;;;;;;;18.35;4.15;;;;;;;5.07;100.00;161893.53;5055899;28;20436;-62
2023/01/15 07:16:00;;;;;;;18.75;4.80;;;;;;;5.03;100.00;161882.75;5054377;28;20041;-61
2023/01/15 07:18:27;;;;;;;13.70;4.07;;;;;;;5.03;100.00;161882.75;5051501;28;20032;-61
2023/01/15 07:20:55;;;;;;;27.30;6.50;;;;;;;5.10;100.00;161898.94;5048330;28;20032;-62
2023/01/15 07:23:21;;;;;;;17.70;4.25;;;;;;;5.07;100.00;161892.16;5055280;28;20029;-62
2023/01/15 07:25:46;;;;;;;10.60;3.83;;;;;;;5.05;100.00;161888.16;5062329;28;20053;-61
2023/01/15 07:28:11;;;;;;;7.80;3.65;;;;;;;5.03;100.00;161882.75;5060903;28;20090;-61
2023/01/15 07:30:37;;;;;;;9.65;3.30;;;;;;;5.08;100.00;161896.25;5062716;28;20099;-62
2023/01/15 07:33:02;;;;;;;12.32;4.75;;;;;;;5.10;100.00;161898.94;5049594;28;20017;-63
2023/01/15 07:35:29;;;;;;;21.58;4.13;;;;;;;5.16;100.00;161915.06;5050451;28;20045;-61
2023/01/15 07:37:55;;;;;;;17.17;5.18;;;;;;;5.22;100.00;161931.19;5050005;28;20593;-62
2023/01/15 07:40:20;;;;;;;16.13;4.03;;;;;;;5.30;100.00;161952.72;5049398;28;20032;-62
2023/01/15 07:50:57;;;;;;;11.80;4.00;;;;;;;5.08;100.00;161896.25;5046936;28;20071;-60
2023/01/15 07:53:23;;;;;;;9.32;4.57;;;;;;;5.06;100.00;161890.84;5050686;28;20487;-60
2023/01/15 07:55:48;;;;;;;17.23;4.15;;;;;;;5.05;100.00;161888.16;5049393;28;20045;-60
2023/01/15 07:58:13;;;;;;;14.73;3.95;;;;;;;5.07;100.00;161892.16;5051003;28;20030;-60
2023/01/15 08:00:39;;;;;;;8.88;3.58;;;;;;;5.13;100.00;161906.97;5049053;28;20110;-60
2023/01/15 08:03:05;;;;;;;15.95;6.72;;;;;;;5.12;100.00;161905.66;5031102;28;20029;-60
2023/01/15 08:05:30;;;;;;;7.32;3.53;;;;;;;5.05;100.00;161888.16;5026629;28;20169;-60
2023/01/15 08:07:56;;;;;;;8.98;4.22;;;;;;;5.03;100.00;161881.44;5028995;28;20029;-60
2023/01/15 08:10:21;;;;;;;12.38;4.50;;;;;;;5.04;100.00;161885.47;5046749;28;20031;-60
2023/01/15 08:15:38;;;;;;;15.57;5.43;;;;;;;4.98;100.00;161868.00;5033205;28;20139;-60
2023/01/15 08:18:04;;;;;;;14.82;6.28;;;;;;;4.94;100.00;161858.59;5049503;28;20029;-60
2023/01/15 08:20:29;;;;;;;18.33;5.15;;;;;;;4.97;100.00;161865.31;5050225;28;20051;-61
2023/01/15 08:22:54;;;;;;;21.08;7.43;;;;;;;5.02;100.00;161880.13;5051046;28;20039;-60
2023/01/15 08:25:23;;;;;;;14.52;5.38;;;;;;;5.06;100.00;161889.53;5049668;28;20021;-60
2023/01/15 08:27:48;;;;;;;12.07;5.90;;;;;;;5.07;100.00;161893.53;5059090;28;20017;-60
2023/01/15 08:30:17;;;;;;;14.77;4.28;;;;;;;5.16;100.00;161915.06;5049250;28;20033;-59
2023/01/15 08:32:42;;;;;;;13.50;5.75;;;;;;;5.24;100.00;161936.59;5049059;28;20120;-60
2023/01/15 08:35:08;;;;;;;21.33;5.90;;;;;;;5.28;100.00;161947.34;5062010;28;20442;-60
2023/01/15 08:37:34;;;;;;;10.25;5.07;;;;;;;5.30;100.00;161952.72;5056325;28;20048;-60
2023/01/15 08:39:59;;;;;;;9.27;3.75;;;;;;;5.36;100.00;161968.88;5050552;28;20033;-61
2023/01/15 08:42:25;;;;;;;5.97;3.20;;;;;;;5.43;100.00;161985.00;5047901;28;20045;-60
2023/01/15 08:44:50;;;;;;;15.73;5.53;;;;;;;5.46;100.00;161993.09;5054189;28;20387;-60
2023/01/15 08:47:16;;;;;;;10.15;3.65;;;;;;;5.50;100.00;162003.81;5058440;28;20498;-60
2023/01/15 08:49:42;;;;;;;17.58;6.38;;;;;;;5.51;100.00;162006.53;5049760;28;20036;-61
2023/01/15 08:52:08;;;;;;;10.30;3.97;;;;;;;5.61;100.00;162033.47;5048172;28;20037;-60
2023/01/15 08:54:33;;;;;;;11.65;4.63;;;;;;;5.63;100.00;162038.81;5050939;28;20029;-60
2023/01/15 08:56:59;;;;;;;30.20;5.53;;;;;;;5.67;100.00;162049.59;5058936;28;20063;-60
2023/01/15 08:59:25;;;;;;;21.60;4.63;;;;;;;5.64;100.00;162041.50;5046604;28;20376;-61
2023/01/15 09:01:50;;;;;;;7.63;4.20;;;;;;;5.65;100.00;162044.19;5055652;28;20434;-60
2023/01/15 09:04:18;;;;;;;10.38;4.82;;;;;;;5.69;100.00;162055.00;5067587;28;20028;-60
2023/01/15 09:06:44;;;;;;;7.97;5.35;;;;;;;5.71;100.00;162059.00;5048559;28;20041;-60
2023/01/15 09:09:10;;;;;;;6.03;2.92;;;;;;;5.72;100.00;162063.03;5049677;28;20025;-60
2023/01/15 09:11:39;;;;;;;17.98;5.75;;;;;;;5.87;100.00;162100.72;5048517;28;20052;-60
2023/01/15 09:14:05;;;;;;;14.70;4.88;;;;;;;6.29;100.00;162211.09;5049704;28;20100;-60
2023/01/15 09:16:31;;;;;;;12.77;4.50;;;;;;;6.51;100.00;162269.00;5049281;28;20129;-63
2023/01/15 09:18:56;;;;;;;10.85;3.08;;;;;;;6.48;100.00;162259.59;5050507;28;20392;-63
2023/01/15 09:21:22;;;;;;;6.75;3.17;;;;;;;6.43;100.00;162246.13;5067291;28;20044;-63
2023/01/15 09:23:48;;;;;;;11.95;3.65;;;;;;;6.32;100.00;162219.19;5070520;28;20482;-63
2023/01/15 09:26:27;;;;;;;11.43;4.78;;;;;;;6.45;100.00;162251.47;5068534;28;20044;-62
2023/01/15 09:28:53;;;;;;;14.65;3.92;;;;;;;6.42;100.00;162243.44;5070857;28;20032;-63
2023/01/15 09:31:19;;;;;;;16.45;5.00;;;;;;;6.42;100.00;162244.75;5068547;28;20044;-63
2023/01/15 09:33:44;;;;;;;19.02;5.70;;;;;;;6.23;100.00;162193.63;5070578;28;20078;-63
2023/01/15 09:36:29;;;;;;;7.53;4.47;;;;;;;6.08;100.00;162154.56;5068752;28;20181;-63
2023/01/15 09:38:55;;;;;;;20.30;4.70;;;;;;;6.33;100.00;162221.91;5070527;28;20103;-63
2023/01/15 09:44:25;;;;;;;7.55;3.05;;;;;;;6.40;100.00;162239.41;5050638;28;20108;-63
2023/01/15 09:47:08;;;;;;;15.15;5.80;;;;;;;6.56;100.00;162281.13;5048392;28;20041;-62
2023/01/15 09:49:49;;;;;;;9.93;3.55;;;;;;;6.76;100.00;162332.28;5050720;28;20036;-63
2023/01/15 09:52:28;;;;;;;12.20;3.95;;;;;;;6.83;100.00;162352.50;5048626;28;20033;-63
2023/01/15 09:55:04;;;;;;;9.32;3.08;;;;;;;6.76;100.00;162333.66;5049919;28;20468;-63
2023/01/15 09:57:31;;;;;;;11.05;4.55;;;;;;;6.54;100.00;162275.72;5048553;28;20041;-63
2023/01/15 10:00:01;;;;;;;17.58;3.63;;;;;;;6.44;100.00;162248.84;5050353;28;20514;-63
2023/01/15 10:02:36;;;;;;;12.38;3.63;;;;;;;6.38;100.00;162234.03;5047982;28;20496;-63
2023/01/15 10:05:23;;;;;;;11.48;3.80;;;;;;;6.57;100.00;162283.81;5050127;28;20128;-63
2023/01/15 10:08:05;;;;;;;11.57;3.33;;;;;;;6.85;100.00;162356.53;5048958;28;20053;-63
2023/01/15 10:10:44;;;;;;;33.03;6.25;;;;;;;6.91;100.00;162371.34;5046768;28;20102;-63
2023/01/15 10:13:36;;;;;;;12.98;3.35;;;;;;;6.67;100.00;162309.41;5050043;28;20029;-63
2023/01/15 10:16:02;;;;;;;13.85;3.95;;;;;;;6.76;100.00;162332.28;5048330;28;20086;-63
2023/01/15 10:18:28;;;;;;;8.43;2.72;;;;;;;6.82;100.00;162348.41;5050177;28;20032;-63
2023/01/15 10:20:53;;;;;;;36.47;4.75;;;;;;;6.72;100.00;162321.53;5048481;28;20457;-63
2023/01/15 10:23:38;;;;;;;10.35;4.03;;;;;;;7.01;100.00;162398.25;5048649;28;20116;-63
2023/01/15 10:26:11;;;;;;;11.98;3.08;;;;;;;6.83;100.00;162352.50;5048616;28;20416;-63
2023/01/15 10:28:56;;;;;;;11.10;6.45;;;;;;;6.75;100.00;162330.94;5047759;28;20496;-63
2023/01/15 10:31:34;;;;;;;6.38;3.17;;;;;;;7.01;100.00;162396.91;5045936;28;20049;-63
2023/01/15 10:34:19;;;;;;;10.73;4.53;;;;;;;6.95;100.00;162383.47;5049896;28;20021;-63
2023/01/15 10:37:11;;;;;;;10.93;3.28;;;;;;;6.86;100.00;162359.22;5047347;28;20172;-63
2023/01/15 10:40:16;;;;;;;17.67;4.70;;;;;;;6.81;100.00;162345.78;5049979;28;20028;-63
2023/01/15 10:42:49;;;;;;;10.10;4.78;;;;;;;6.76;100.00;162332.28;5029656;28;20535;-63
2023/01/15 10:45:21;;;;;;;4.30;2.55;;;;;;;6.73;100.00;162324.22;5032085;28;20033;-63
2023/01/15 10:47:52;;;;;;;13.18;3.55;;;;;;;6.74;100.00;162326.94;5052180;28;20123;-63
2023/01/15 10:50:21;;;;;;;8.48;3.92;;;;;;;6.80;100.00;162343.06;5051874;28;20368;-62
2023/01/15 10:52:55;;;;;;;16.58;4.63;;;;;;;6.91;100.00;162372.66;5052557;28;20043;-63
2023/01/15 10:55:28;;;;;;;14.18;3.90;;;;;;;6.81;100.00;162345.78;5051152;28;20024;-63
2023/01/15 10:58:13;;;;;;;10.32;3.95;;;;;;;7.11;100.00;162423.88;5053736;28;20040;-63
2023/01/15 11:00:40;;;;;;;7.10;3.20;;;;;;;7.23;100.00;162456.19;5051743;28;20161;-63
2023/01/15 11:03:17;;;;;;;10.45;3.28;;;;;;;7.25;100.00;162460.22;5052453;28;20059;-63
2023/01/15 11:05:45;;;;;;;24.17;4.13;;;;;;;7.11;100.00;162423.88;5051347;28;20048;-63
2023/01/15 11:08:21;;;;;;;6.45;3.72;;;;;;;6.88;100.00;162364.63;5051883;28;20043;-63
2023/01/15 11:10:46;;;;;;;8.93;3.25;;;;;;;6.98;100.00;162391.53;5050458;28;20091;-63
2023/01/15 11:19:37;;;;;;;3.80;3.28;;;;;;;6.89;100.00;162367.28;5049994;28;20044;-63
2023/01/15 11:22:08;;;;;;;9.10;3.47;;;;;;;6.80;100.00;162343.06;5050020;28;20049;-63
2023/01/15 11:24:45;;;;;;;12.25;4.18;;;;;;;6.79;100.00;162340.38;5051633;28;20025;-63
2023/01/15 11:27:15;;;;;;;17.92;3.20;;;;;;;6.87;100.00;162361.91;5049028;28;20559;-63
2023/01/15 11:29:43;;;;;;;15.23;5.20;;;;;;;6.81;100.00;162345.78;5051185;28;20039;-63
2023/01/15 11:32:34;;;;;;;10.18;3.95;;;;;;;6.83;100.00;162351.13;5049684;28;20043;-63
2023/01/15 11:35:15;;;;;;;10.73;3.22;;;;;;;6.84;100.00;162353.81;5051105;28;20033;-63
2023/01/15 11:37:40;;;;;;;17.02;4.30;;;;;;;6.91;100.00;162372.66;5049918;28;20076;-63
2023/01/15 11:40:16;;;;;;;13.65;3.60;;;;;;;6.89;100.00;162367.28;5052306;28;20020;-63
2023/01/15 11:51:12;;;;;;;8.50;2.95;;;;;;;7.40;100.00;162500.63;5047514;28;20409;-64
2023/01/15 11:53:44;;;;;;;12.57;3.30;;;;;;;7.36;100.00;162488.50;5042507;28;20029;-64
2023/01/15 11:56:15;;;;;;;9.15;3.33;;;;;;;7.33;100.00;162480.44;5048222;28;20041;-64
2023/01/15 11:58:50;;;;;;;9.93;4.72;;;;;;;7.22;100.00;162453.47;5055273;28;20387;-63
2023/01/15 12:01:27;;;;;;;16.65;3.85;;;;;;;7.19;100.00;162445.38;5052032;28;20496;-64
2023/01/15 12:03:53;;;;;;;10.23;3.28;;;;;;;7.22;100.00;162453.47;5053295;28;20042;-64
2023/01/15 12:06:20;;;;;;;5.30;3.13;;;;;;;7.08;100.00;162417.09;5050151;28;20526;-64
2023/01/15 12:09:04;;;;;;;14.80;4.47;;;;;;;7.16;100.00;162437.31;5051770;28;20024;-64
2023/01/15 12:11:51;;;;;;;11.07;3.47;;;;;;;7.12;100.00;162426.53;5050193;28;20064;-64